sim
Sign-in with your pilot id or email,
or register
Callsign
Passwort

Schedule Details

Flight Number: DLH2277 (1)
Departure: Nice Cote d'Azur Airport (LFMN) at 05:15
Arrival: Munich Airport (EDDM) at 06:40
Route: Lufthansa Passenger Schedule. Enter filed route here before submitting Pirep.

Weather Information
Getting current METAR information for LFMN 261840Z 32009KT 310V010 CAVOK 17/03 Q1000 NOSIG
Getting current METAR information for EDDM 261820Z 24020G32KT 9999 -RA OVC023 07/04 Q1001 NOSIG

Schedule Frequency

Route Map